createdAt,value
2022-10-01T00:00:52.154Z,98428.91
2022-10-01T00:01:49.844Z,98412.28
2022-10-01T00:02:47.331Z,98412.28
2022-10-01T00:04:03.779Z,98413.97
2022-10-01T00:05:28.725Z,98415.00
2022-10-01T00:06:25.761Z,98399.28
2022-10-01T00:13:37.000Z,98389.13
2022-10-01T00:14:51.914Z,98381.34
2022-10-01T00:16:01.313Z,98383.09
2022-10-01T00:17:00.824Z,98378.69
2022-10-01T00:17:58.336Z,98371.56
2022-10-01T00:18:55.201Z,98363.69
2022-10-01T00:19:52.038Z,98366.28
2022-10-01T00:20:48.948Z,98350.63
2022-10-01T00:21:45.857Z,98358.50
2022-10-01T00:22:42.832Z,98357.53
2022-10-01T00:23:39.674Z,98353.31
2022-10-01T00:24:37.935Z,98351.63
2022-10-01T00:25:35.148Z,98341.88
2022-10-01T00:26:33.732Z,98329.63
2022-10-01T00:27:31.579Z,98332.22
2022-10-01T00:28:28.461Z,98331.34
2022-10-01T00:29:26.711Z,98326.94
2022-10-01T00:30:25.730Z,98337.50
2022-10-01T00:31:23.027Z,98334.00
2022-10-01T00:32:21.133Z,98326.97
2022-10-01T00:33:18.097Z,98333.97
2022-10-01T00:34:15.516Z,98342.78
2022-10-01T00:35:14.292Z,98334.94
2022-10-01T00:36:11.446Z,98339.22
2022-10-01T00:37:10.771Z,98333.09
2022-10-01T00:38:07.557Z,98328.84
2022-10-01T00:39:04.402Z,98319.22
2022-10-01T00:40:01.626Z,98325.31
2022-10-01T00:40:58.655Z,98330.53
2022-10-01T00:41:55.538Z,98333.19
2022-10-01T00:42:52.650Z,98336.72
2022-10-01T00:43:55.729Z,98340.16
2022-10-01T00:44:54.159Z,98325.16
2022-10-01T00:45:51.840Z,98340.13
2022-10-01T00:46:48.892Z,98335.81
2022-10-01T00:47:56.535Z,98322.66
2022-10-01T00:49:02.626Z,98313.03
2022-10-01T00:50:07.098Z,98321.78
2022-10-01T00:51:04.765Z,98320.06
2022-10-01T00:52:03.607Z,98318.28
2022-10-01T00:53:02.989Z,98311.19
2022-10-01T00:54:08.770Z,98307.69
2022-10-01T00:55:14.300Z,98327.91
2022-10-01T00:56:11.400Z,98316.56
2022-10-01T00:57:08.215Z,98314.78
2022-10-01T00:58:04.981Z,98327.84
2022-10-01T00:59:02.182Z,98313.91
2022-10-01T01:00:00.719Z,98310.41
2022-10-01T01:00:57.607Z,98313.91
2022-10-01T01:01:54.751Z,98297.28
2022-10-01T01:02:51.632Z,98299.09
2022-10-01T01:03:48.472Z,98308.69
2022-10-01T01:04:45.535Z,98306.06
2022-10-01T01:05:42.624Z,98299.00
2022-10-01T01:06:39.475Z,98291.09
2022-10-01T01:07:36.290Z,98326.22
2022-10-01T01:08:33.424Z,98306.06
2022-10-01T01:09:34.074Z,98297.22
2022-10-01T01:10:53.107Z,98285.84
2022-10-01T01:11:58.264Z,98299.78
2022-10-01T01:13:05.180Z,98287.47
2022-10-01T01:14:14.166Z,98293.69
2022-10-01T01:15:31.178Z,98278.69
2022-10-01T01:16:35.452Z,98293.69
2022-10-01T01:17:52.492Z,98259.47
2022-10-01T01:19:00.745Z,98260.31
2022-10-01T01:20:32.724Z,98262.03
2022-10-01T01:21:34.013Z,98269.94
2022-10-01T01:22:32.519Z,98283.19
2022-10-01T01:23:29.306Z,98256.88
2022-10-01T01:24:32.718Z,98267.38
2022-10-01T01:25:52.342Z,98251.63
2022-10-01T01:26:59.381Z,98249.84
2022-10-01T01:28:20.002Z,98254.22
2022-10-01T01:29:28.919Z,98246.31
2022-10-01T01:30:25.824Z,98248.94
2022-10-01T01:31:25.324Z,98242.00
2022-10-01T01:33:12.061Z,98241.88
2022-10-01T01:34:12.845Z,98229.66
2022-10-01T01:35:10.852Z,98238.47
2022-10-01T01:36:14.090Z,98226.16
2022-10-01T01:37:14.392Z,98220.91
2022-10-01T01:38:14.386Z,98204.28
2022-10-01T01:39:12.089Z,98201.75
2022-10-01T01:40:11.951Z,98204.34
2022-10-01T01:41:11.686Z,98187.63
2022-10-01T01:42:12.477Z,98192.84
2022-10-01T01:43:14.144Z,98188.47
2022-10-01T01:44:11.749Z,98183.31
2022-10-01T01:45:10.601Z,98203.38
2022-10-01T01:46:08.187Z,98180.59
2022-10-01T01:47:05.315Z,98162.22
2022-10-01T01:48:02.348Z,98170.16
2022-10-01T01:49:04.658Z,98159.59
2022-10-01T01:50:02.900Z,98151.59
2022-10-01T01:51:11.804Z,98172.66
2022-10-01T01:52:13.457Z,98176.19
2022-10-01T01:53:11.337Z,98163.88
2022-10-01T01:54:08.645Z,98159.47
2022-10-01T01:55:08.635Z,98147.09
2022-10-01T01:56:06.421Z,98143.66
2022-10-01T01:57:04.181Z,98145.38
2022-10-01T01:58:00.912Z,98132.16
2022-10-01T01:58:58.617Z,98140.09
2022-10-01T01:59:55.552Z,98113.00
2022-10-01T02:00:55.232Z,98115.63
2022-10-01T02:01:52.178Z,98104.19
2022-10-01T02:02:52.738Z,98137.56
2022-10-01T02:03:49.963Z,98153.38
2022-10-01T02:04:57.316Z,98103.38
2022-10-01T02:06:05.508Z,98088.44
2022-10-01T02:07:08.341Z,98067.38
2022-10-01T02:08:17.611Z,98075.31
2022-10-01T02:09:20.026Z,98089.34
2022-10-01T02:10:16.960Z,98074.44
2022-10-01T02:11:23.472Z,98052.53
2022-10-01T02:12:35.677Z,98040.31
2022-10-01T02:13:53.897Z,98034.22
2022-10-01T02:15:01.299Z,98072.69
2022-10-01T02:16:10.111Z,98097.19
2022-10-01T02:17:16.603Z,98132.13
2022-10-01T02:18:22.207Z,98137.34
2022-10-01T02:19:23.277Z,98141.78
2022-10-01T02:20:26.837Z,98120.78
2022-10-01T02:21:28.888Z,98100.59
2022-10-01T02:22:41.075Z,98107.59
2022-10-01T02:23:46.528Z,98090.97
2022-10-01T02:24:50.360Z,98118.88
2022-10-01T02:25:49.495Z,98100.59
2022-10-01T02:26:46.328Z,98117.00
2022-10-01T02:27:49.285Z,98102.88
2022-10-01T02:28:46.251Z,98113.41
2022-10-01T02:29:43.266Z,98110.81
2022-10-01T02:30:40.146Z,98107.22
2022-10-01T02:31:37.471Z,98109.03
2022-10-01T02:32:35.053Z,98110.72
2022-10-01T02:33:35.402Z,98105.44
2022-10-01T02:34:32.338Z,98110.78
2022-10-01T02:35:32.877Z,98102.75
2022-10-01T02:36:30.330Z,98120.31
2022-10-01T02:37:27.985Z,98093.06
2022-10-01T02:38:25.199Z,98093.13
2022-10-01T02:39:22.031Z,98096.63
2022-10-01T02:40:20.095Z,98100.88
2022-10-01T02:41:19.582Z,98103.47
2022-10-01T02:42:16.698Z,98089.44
2022-10-01T02:43:21.209Z,98092.09
2022-10-01T02:44:21.307Z,98093.00
2022-10-01T02:45:22.880Z,98101.88
2022-10-01T02:46:28.512Z,98081.81
2022-10-01T02:47:28.737Z,98094.78
2022-10-01T02:48:27.345Z,98088.75
2022-10-01T02:49:28.541Z,98100.09
2022-10-01T02:50:29.091Z,98091.19
2022-10-01T02:51:32.659Z,98098.34
2022-10-01T02:53:09.428Z,98113.28
2022-10-01T02:54:16.950Z,98100.19
2022-10-01T02:55:19.307Z,98109.06
2022-10-01T02:56:36.792Z,98100.16
2022-10-01T02:57:33.633Z,98099.25
2022-10-01T02:58:30.419Z,98125.47
2022-10-01T02:59:27.257Z,98096.53
2022-10-01T03:00:25.250Z,98114.13
2022-10-01T03:01:22.574Z,98109.69
2022-10-01T03:02:20.002Z,98095.63
2022-10-01T03:03:17.685Z,98128.13
2022-10-01T03:04:14.393Z,98112.25
2022-10-01T03:05:11.229Z,98118.38
2022-10-01T03:06:08.053Z,98153.47
2022-10-01T03:07:04.833Z,98134.97
2022-10-01T03:08:01.756Z,98128.78
2022-10-01T03:09:00.440Z,98133.19
2022-10-01T03:09:57.668Z,98141.00
2022-10-01T03:10:54.506Z,98134.03
2022-10-01T03:11:52.031Z,98138.34
2022-10-01T03:12:51.062Z,98123.41
2022-10-01T03:13:47.957Z,98126.94
2022-10-01T03:14:45.590Z,98120.81
2022-10-01T03:15:42.462Z,98118.13
2022-10-01T03:16:39.556Z,98129.56
2022-10-01T03:17:37.267Z,98121.66
2022-10-01T03:18:34.589Z,98117.31
2022-10-01T03:19:31.483Z,98111.09
2022-10-01T03:20:28.228Z,98119.75
2022-10-01T03:21:25.100Z,98112.75
2022-10-01T03:22:22.836Z,98114.63
2022-10-01T03:23:31.369Z,98121.63
2022-10-01T03:24:28.238Z,98120.81
2022-10-01T03:25:25.070Z,98124.25
2022-10-01T03:26:21.816Z,98116.38
2022-10-01T03:27:19.179Z,98129.53
2022-10-01T03:28:16.336Z,98133.03
2022-10-01T03:29:13.525Z,98121.66
2022-10-01T03:30:13.378Z,98129.41
2022-10-01T03:31:10.943Z,98129.50
2022-10-01T03:32:07.910Z,98139.09
2022-10-01T03:33:04.830Z,98141.72
2022-10-01T03:34:01.806Z,98146.13
2022-10-01T03:34:58.879Z,98146.94
2022-10-01T03:35:56.094Z,98144.34
2022-10-01T03:36:52.987Z,98148.56
2022-10-01T03:37:49.842Z,98157.44
2022-10-01T03:38:46.640Z,98145.94
2022-10-01T03:39:43.535Z,98133.53
2022-10-01T03:40:40.582Z,98155.56
2022-10-01T03:41:37.429Z,98144.97
2022-10-01T03:42:34.300Z,98173.09
2022-10-01T03:43:31.178Z,98162.50
2022-10-01T03:44:30.828Z,98171.31
2022-10-01T03:45:27.650Z,98173.03
2022-10-01T03:46:24.533Z,98183.63
2022-10-01T03:47:24.481Z,98166.00
2022-10-01T03:48:21.435Z,98190.56
2022-10-01T03:49:18.482Z,98181.78
2022-10-01T03:50:15.805Z,98174.78
2022-10-01T03:51:15.594Z,98172.84
2022-10-01T03:52:16.124Z,98162.34
2022-10-01T03:53:12.917Z,98159.78
2022-10-01T03:54:10.149Z,98170.25
2022-10-01T03:55:07.672Z,98160.56
2022-10-01T03:56:05.095Z,98146.63
2022-10-01T03:57:02.087Z,98148.38
2022-10-01T03:57:59.061Z,98129.97
2022-10-01T03:58:55.798Z,98128.25
2022-10-01T03:59:52.659Z,98124.72
2022-10-01T04:00:50.079Z,98128.25
2022-10-01T04:01:46.979Z,98077.31
2022-10-01T04:02:44.245Z,98065.91
2022-10-01T04:03:41.633Z,98042.22
2022-10-01T04:04:38.493Z,98058.06
2022-10-01T04:05:35.374Z,98057.22
2022-10-01T04:06:32.246Z,98041.34
2022-10-01T04:07:29.031Z,98048.34
2022-10-01T04:08:25.945Z,98060.63
2022-10-01T04:09:22.797Z,98070.31
2022-10-01T04:10:19.782Z,98079.06
2022-10-01T04:11:16.620Z,98087.69
2022-10-01T04:12:13.971Z,98102.63
2022-10-01T04:13:13.669Z,98082.56
2022-10-01T04:14:11.197Z,98090.47
2022-10-01T04:15:10.922Z,98095.56
2022-10-01T04:16:07.986Z,98064.09
2022-10-01T04:17:08.198Z,98074.56
2022-10-01T04:18:06.356Z,98089.41
2022-10-01T04:19:05.207Z,98092.06
2022-10-01T04:20:04.085Z,98076.13
2022-10-01T04:21:01.835Z,98085.75
2022-10-01T04:21:59.336Z,98076.97
2022-10-01T04:22:59.674Z,98067.38
2022-10-01T04:23:58.081Z,98055.22
2022-10-01T04:24:55.260Z,98062.19
2022-10-01T04:25:52.248Z,98066.41
2022-10-01T04:26:53.485Z,98076.81
2022-10-01T04:28:01.211Z,98072.44
2022-10-01T04:29:01.315Z,98083.69
2022-10-01T04:30:00.141Z,98081.91
2022-10-01T04:31:16.115Z,98071.28
2022-10-01T04:32:13.034Z,98067.81
2022-10-01T04:33:16.200Z,98075.78
2022-10-01T04:34:13.005Z,98080.06
2022-10-01T04:35:14.116Z,98063.34
2022-10-01T04:36:11.836Z,98059.84
2022-10-01T04:37:08.602Z,98080.03
2022-10-01T04:38:07.172Z,98067.88
2022-10-01T04:39:04.540Z,98066.09
2022-10-01T04:40:01.781Z,98073.84
2022-10-01T04:41:00.209Z,98067.72
2022-10-01T04:41:57.119Z,98076.41
2022-10-01T04:42:54.380Z,98080.66
2022-10-01T04:43:52.699Z,98064.97
2022-10-01T04:44:49.932Z,98066.66
2022-10-01T04:45:47.105Z,98071.97
2022-10-01T04:46:44.766Z,98070.13
2022-10-01T04:47:49.009Z,98077.13
2022-10-01T04:48:48.217Z,98072.66
2022-10-01T04:49:48.192Z,98083.22
2022-10-01T04:50:48.368Z,98088.41
2022-10-01T04:51:47.269Z,98077.94
2022-10-01T04:52:46.095Z,98073.41
2022-10-01T04:53:56.173Z,98062.13
2022-10-01T04:55:00.071Z,98053.53
2022-10-01T04:55:59.523Z,98051.63
2022-10-01T04:56:57.841Z,98050.59
2022-10-01T04:57:56.711Z,98059.25
2022-10-01T05:01:11.600Z,98053.22
2022-10-01T05:02:23.748Z,98072.44
2022-10-01T05:04:54.360Z,98071.53
2022-10-01T05:05:53.402Z,98062.66
2022-10-01T05:06:54.404Z,98054.81
2022-10-01T05:07:51.519Z,98061.63
2022-10-01T05:08:49.623Z,98075.72
2022-10-01T05:09:46.532Z,98060.78
2022-10-01T05:10:43.567Z,98065.97
2022-10-01T05:11:41.308Z,98068.69
2022-10-01T05:12:38.283Z,98064.19
2022-10-01T05:13:36.173Z,98068.59
2022-10-01T05:14:33.016Z,98051.84
2022-10-01T05:15:30.397Z,98069.47
2022-10-01T05:16:27.306Z,98055.34
2022-10-01T05:17:24.336Z,98053.59
2022-10-01T05:18:21.302Z,98047.34
2022-10-01T05:19:18.250Z,98065.72
2022-10-01T05:20:22.480Z,98072.75
2022-10-01T05:21:19.461Z,98064.97
2022-10-01T05:22:16.559Z,98065.75
2022-10-01T05:23:13.373Z,98049.06
2022-10-01T05:24:10.250Z,98064.91
2022-10-01T05:25:07.392Z,98074.50
2022-10-01T05:26:05.834Z,98079.84
2022-10-01T05:27:02.639Z,98067.50
2022-10-01T05:28:05.595Z,98085.91
2022-10-01T05:29:02.771Z,98058.75
2022-10-01T05:29:59.521Z,98080.66
2022-10-01T05:30:59.565Z,98092.81
2022-10-01T05:31:58.929Z,98075.22
2022-10-01T05:33:00.611Z,98073.50
2022-10-01T05:33:57.531Z,98072.63
2022-10-01T05:34:55.096Z,98087.53
2022-10-01T05:35:52.059Z,98080.53
2022-10-01T05:36:48.780Z,98082.41
2022-10-01T05:37:45.726Z,98072.59
2022-10-01T05:38:42.584Z,98076.00
2022-10-01T05:39:39.371Z,98085.56
2022-10-01T05:40:36.235Z,98085.47
2022-10-01T05:41:33.319Z,98072.38
2022-10-01T05:42:30.284Z,98089.16
2022-10-01T05:43:27.133Z,98090.84
2022-10-01T05:44:24.122Z,98089.97
2022-10-01T05:45:22.780Z,98086.50
2022-10-01T05:46:19.824Z,98083.84
2022-10-01T05:47:16.918Z,98083.84
2022-10-01T05:48:13.686Z,98095.25
2022-10-01T05:49:10.793Z,98101.31
2022-10-01T05:50:08.321Z,98097.81
2022-10-01T05:51:06.805Z,98097.78
2022-10-01T05:52:04.716Z,98095.16
2022-10-01T05:53:02.028Z,98102.28
2022-10-01T05:53:59.574Z,98106.56
2022-10-01T05:54:56.295Z,98097.88
2022-10-01T05:55:53.662Z,98096.16
2022-10-01T05:56:51.038Z,98095.34
2022-10-01T05:57:57.813Z,98096.13
2022-10-01T05:58:55.139Z,98102.09
2022-10-01T05:59:52.097Z,98098.50
2022-10-01T06:00:48.990Z,98104.50
2022-10-01T06:01:46.643Z,98102.16
2022-10-01T06:02:43.611Z,98109.09
2022-10-01T06:03:40.455Z,98124.03
2022-10-01T06:04:41.028Z,98112.72
2022-10-01T06:05:38.591Z,98118.69
2022-10-01T06:06:35.231Z,98105.38
2022-10-01T06:07:32.086Z,98110.59
2022-10-01T06:08:29.066Z,98107.84
2022-10-01T06:09:25.847Z,98112.22
2022-10-01T06:10:22.738Z,98137.69
2022-10-01T06:11:22.272Z,98124.66
2022-10-01T06:12:20.064Z,98114.16
2022-10-01T06:13:19.910Z,98121.91
2022-10-01T06:14:17.025Z,98123.63
2022-10-01T06:15:13.998Z,98127.97
2022-10-01T06:16:11.777Z,98122.69
2022-10-01T06:17:08.625Z,98125.22
2022-10-01T06:18:08.809Z,98115.63
2022-10-01T06:19:05.599Z,98115.72
2022-10-01T06:20:02.462Z,98105.00
2022-10-01T06:21:02.046Z,98107.50
2022-10-01T06:21:58.862Z,98124.31
2022-10-01T06:22:56.589Z,98119.88
2022-10-01T06:23:53.554Z,98118.19
2022-10-01T06:24:53.690Z,98116.28
2022-10-01T06:25:52.876Z,98108.25
2022-10-01T06:26:49.722Z,98125.69
2022-10-01T06:27:56.368Z,98127.38
2022-10-01T06:28:53.290Z,98116.91
2022-10-01T06:29:50.066Z,98126.59
2022-10-01T06:30:47.277Z,98111.63
2022-10-01T06:31:44.016Z,98119.28
2022-10-01T06:32:40.720Z,98126.22
2022-10-01T06:33:37.559Z,98124.38
2022-10-01T06:34:34.317Z,98127.19
2022-10-01T06:35:31.563Z,98140.22
2022-10-01T06:36:28.316Z,98119.16
2022-10-01T06:37:25.360Z,98137.50
2022-10-01T06:38:23.003Z,98144.38
2022-10-01T06:39:19.827Z,98132.88
2022-10-01T06:40:16.672Z,98128.28
2022-10-01T06:41:14.267Z,98139.53
2022-10-01T06:42:11.257Z,98142.03
2022-10-01T06:43:08.443Z,98129.16
2022-10-01T06:44:05.467Z,98133.59
2022-10-01T06:45:02.248Z,98129.94
2022-10-01T06:46:03.104Z,98130.63
2022-10-01T06:46:59.989Z,98137.09
2022-10-01T06:47:58.123Z,98133.56
2022-10-01T06:48:54.960Z,98146.59
2022-10-01T06:49:51.710Z,98144.50
2022-10-01T06:50:49.856Z,98159.44
2022-10-01T06:52:05.244Z,98149.84
2022-10-01T06:53:02.201Z,98148.53
2022-10-01T06:53:59.036Z,98141.47
2022-10-01T06:54:55.837Z,98144.03
2022-10-01T06:55:52.650Z,98149.09
2022-10-01T06:56:49.429Z,98147.38
2022-10-01T06:57:46.447Z,98147.31
2022-10-01T06:58:46.421Z,98149.84
2022-10-01T06:59:44.722Z,98148.22
2022-10-01T07:00:53.888Z,98156.06
2022-10-01T07:01:55.464Z,98152.59
2022-10-01T07:02:53.194Z,98161.09
2022-10-01T07:03:54.283Z,98150.22
2022-10-01T07:04:51.546Z,98154.94
2022-10-01T07:05:48.649Z,98157.41
2022-10-01T07:06:45.561Z,98158.31
2022-10-01T07:07:43.255Z,98144.34
2022-10-01T07:08:40.589Z,98150.31
2022-10-01T07:09:38.004Z,98151.91
2022-10-01T07:10:35.381Z,98138.69
2022-10-01T07:11:32.431Z,98150.63
2022-10-01T07:12:33.214Z,98153.00
2022-10-01T07:13:30.204Z,98140.69
2022-10-01T07:14:26.994Z,98154.00
2022-10-01T07:15:24.048Z,98150.38
2022-10-01T07:16:21.068Z,98157.56
2022-10-01T07:17:17.970Z,98152.28
2022-10-01T07:18:23.132Z,98157.38
2022-10-01T07:19:25.407Z,98154.34
2022-10-01T07:20:22.662Z,98145.09
2022-10-01T07:21:20.226Z,98160.47
2022-10-01T07:22:19.338Z,98176.44
2022-10-01T07:23:16.671Z,98145.69
2022-10-01T07:24:13.894Z,98153.66
2022-10-01T07:25:10.778Z,98141.25
2022-10-01T07:26:09.316Z,98149.38
2022-10-01T07:27:07.490Z,98155.84
2022-10-01T07:28:04.945Z,98157.66
2022-10-01T07:29:02.040Z,98167.59
2022-10-01T07:29:59.165Z,98166.72
2022-10-01T07:30:58.535Z,98166.84
2022-10-01T07:32:01.332Z,98156.53
2022-10-01T07:32:58.467Z,98164.22
2022-10-01T07:33:58.791Z,98175.88
2022-10-01T07:34:55.675Z,98189.72
2022-10-01T07:35:52.538Z,98169.47
2022-10-01T07:36:49.400Z,98160.66
2022-10-01T07:37:49.315Z,98169.13
2022-10-01T07:38:52.405Z,98178.97
2022-10-01T07:39:49.578Z,98169.94
2022-10-01T07:40:54.351Z,98189.00
2022-10-01T07:41:54.437Z,98170.41
2022-10-01T07:43:06.183Z,98173.00
2022-10-01T07:44:04.349Z,98171.22
2022-10-01T07:45:25.116Z,98187.81
2022-10-01T07:46:25.884Z,98174.59
2022-10-01T07:47:25.296Z,98178.78
2022-10-01T07:48:25.321Z,98182.91
2022-10-01T07:49:25.280Z,98191.50
2022-10-01T07:50:35.696Z,98183.19
2022-10-01T07:51:41.503Z,98181.31
2022-10-01T07:52:50.179Z,98172.34
2022-10-01T07:54:06.389Z,98178.47
2022-10-01T07:55:14.355Z,98184.81
2022-10-01T07:56:14.638Z,98187.44
2022-10-01T07:57:14.900Z,98192.00
2022-10-01T07:58:14.781Z,98202.63
2022-10-01T07:59:14.843Z,98190.78
2022-10-01T08:00:17.892Z,98183.75
2022-10-01T08:01:18.208Z,98180.97
2022-10-01T08:02:22.710Z,98189.53
2022-10-01T08:03:27.480Z,98186.94
2022-10-01T08:04:45.957Z,98196.47
2022-10-01T08:06:10.071Z,98208.81
2022-10-01T08:07:23.943Z,98199.47
2022-10-01T08:08:36.728Z,98213.69
2022-10-01T08:09:47.445Z,98199.38
2022-10-01T08:11:41.751Z,98220.16
2022-10-01T08:12:43.016Z,98196.06
2022-10-01T08:13:55.151Z,98207.34
2022-10-01T08:15:00.788Z,98217.56
2022-10-01T08:16:08.074Z,98213.19
2022-10-01T08:17:07.806Z,98220.94
2022-10-01T08:18:12.180Z,98236.44
2022-10-01T08:19:21.378Z,98216.69
2022-10-01T08:20:39.332Z,98211.09
2022-10-01T08:22:13.388Z,98208.81
2022-10-01T08:26:22.429Z,98213.13
2022-10-01T08:27:51.063Z,98218.31
2022-10-01T08:29:26.823Z,98222.19
2022-10-01T08:30:41.785Z,98238.91
2022-10-01T08:31:44.393Z,98219.34
2022-10-01T08:32:47.088Z,98231.41
2022-10-01T08:33:49.515Z,98217.63
2022-10-01T08:34:55.928Z,98225.75
2022-10-01T08:36:22.867Z,98216.44
2022-10-01T08:37:34.524Z,98238.97
2022-10-01T08:38:43.398Z,98244.56
2022-10-01T08:39:43.558Z,98233.81
2022-10-01T08:41:02.212Z,98235.56
2022-10-01T08:42:43.696Z,98238.13
2022-10-01T08:43:47.828Z,98235.50
2022-10-01T08:45:11.772Z,98242.16
2022-10-01T08:46:16.500Z,98259.38
2022-10-01T08:47:30.330Z,98270.44
2022-10-01T08:48:45.271Z,98262.53
2022-10-01T08:49:47.316Z,98261.25
2022-10-01T08:50:52.994Z,98267.78
2022-10-01T08:52:29.434Z,98257.09
2022-10-01T08:53:45.074Z,98255.72
2022-10-01T08:54:44.983Z,98264.09
2022-10-01T08:55:54.724Z,98263.09
2022-10-01T08:56:54.279Z,98259.81
2022-10-01T08:57:59.577Z,98288.75
2022-10-01T08:59:06.958Z,98286.09
2022-10-01T09:00:08.194Z,98278.41
2022-10-01T09:01:05.693Z,98272.53
2022-10-01T09:02:29.538Z,98279.50
2022-10-01T09:03:33.445Z,98277.34
2022-10-01T09:04:30.937Z,98276.44
2022-10-01T09:05:52.346Z,98272.84
2022-10-01T11:08:16.919Z,98366.53
2022-10-01T11:09:16.487Z,98361.53
2022-10-01T11:10:56.710Z,98358.59
2022-10-01T11:12:24.960Z,98376.75
2022-10-01T11:13:54.928Z,98363.00
2022-10-01T11:15:11.117Z,98373.28
2022-10-01T11:16:44.844Z,98367.44
2022-10-01T11:17:57.602Z,98370.88
2022-10-01T11:19:11.497Z,98367.03
2022-10-01T11:20:27.793Z,98381.31
2022-10-01T11:41:24.112Z,98392.78
2022-10-01T11:43:43.351Z,98368.53
2022-10-01T11:45:38.106Z,98387.88
2022-10-01T11:48:44.355Z,98393.03
2022-10-01T11:50:54.556Z,98394.91
2022-10-01T11:52:46.457Z,98395.00
2022-10-01T11:54:04.853Z,98431.97
2022-10-01T11:57:53.762Z,98409.13
2022-10-01T11:59:10.895Z,98428.22
2022-10-01T12:00:12.054Z,98413.66
2022-10-01T12:01:38.009Z,98408.78
2022-10-01T12:02:52.417Z,98412.59
2022-10-01T12:03:58.976Z,98413.88
2022-10-01T12:05:24.748Z,98412.38
2022-10-01T12:06:33.640Z,98418.03
2022-10-01T12:08:30.345Z,98428.25
2022-10-01T12:19:13.883Z,98426.78
2022-10-01T12:55:30.928Z,98457.94
2022-10-01T12:56:41.055Z,98460.03
2022-10-01T13:00:01.533Z,98451.31
2022-10-01T13:01:36.460Z,98457.50
2022-10-01T13:03:01.162Z,98486.06
2022-10-01T13:05:57.215Z,98464.63
2022-10-01T13:08:18.462Z,98473.63
2022-10-01T13:09:37.700Z,98468.75
2022-10-01T13:11:06.086Z,98466.88
2022-10-01T13:12:29.095Z,98480.06
2022-10-01T13:13:29.764Z,98486.50
2022-10-01T13:14:27.459Z,98476.19
2022-10-01T13:15:28.086Z,98480.06
2022-10-01T13:16:56.155Z,98475.47
2022-10-01T13:18:00.282Z,98480.16
2022-10-01T13:19:05.985Z,98484.69
2022-10-01T13:20:14.831Z,98482.50
2022-10-01T13:21:24.850Z,98477.63
2022-10-01T13:22:45.854Z,98476.13
2022-10-01T13:24:06.393Z,98492.81
2022-10-01T13:25:20.970Z,98494.22
2022-10-01T13:26:22.545Z,98498.81
2022-10-01T13:27:55.120Z,98491.69
2022-10-01T13:29:26.048Z,98494.25
2022-10-01T13:30:36.415Z,98481.72
2022-10-01T13:32:01.165Z,98486.19
2022-10-01T13:33:00.954Z,98484.03
2022-10-01T13:33:58.198Z,98494.25
2022-10-01T13:35:01.082Z,98492.53
2022-10-01T13:36:00.411Z,98487.41
2022-10-01T13:36:57.604Z,98493.75
2022-10-01T13:37:54.744Z,98494.94
2022-10-01T13:38:59.061Z,98496.03
2022-10-01T13:40:09.460Z,98498.00
2022-10-01T13:41:23.573Z,98495.56
2022-10-01T13:43:59.241Z,98493.25
2022-10-01T13:46:33.715Z,98502.59
2022-10-01T13:48:46.984Z,98499.16
2022-10-01T13:49:45.716Z,98507.09
2022-10-01T13:51:04.356Z,98507.25
2022-10-01T13:52:03.644Z,98506.72
2022-10-01T13:53:17.573Z,98513.34
2022-10-01T13:54:28.153Z,98502.91
2022-10-01T13:55:29.064Z,98499.50
2022-10-01T13:56:31.599Z,98506.19
2022-10-01T13:57:36.562Z,98521.44
2022-10-01T13:58:49.797Z,98529.22
2022-10-01T13:59:46.933Z,98512.69
2022-10-01T14:00:58.644Z,98519.50
2022-10-01T14:02:23.072Z,98511.31
2022-10-01T14:04:05.040Z,98510.66
2022-10-01T14:05:40.966Z,98514.50
2022-10-01T14:06:44.994Z,98518.75
2022-10-01T14:07:45.904Z,98521.56
2022-10-01T14:09:07.665Z,98518.72
2022-10-01T14:13:30.479Z,98522.78
2022-10-01T14:15:09.455Z,98525.88
2022-10-01T14:16:22.510Z,98512.09
2022-10-01T14:17:34.372Z,98525.91
2022-10-01T14:18:36.697Z,98522.19
2022-10-01T14:19:34.220Z,98521.03
2022-10-01T14:20:36.129Z,98536.94
2022-10-01T14:23:23.662Z,98529.44
2022-10-01T14:24:23.404Z,98542.28
2022-10-01T14:25:41.451Z,98527.03
2022-10-01T14:26:52.478Z,98546.69
2022-10-01T14:27:58.214Z,98541.81
2022-10-01T14:29:23.452Z,98541.38
2022-10-01T14:30:24.086Z,98551.66
2022-10-01T14:31:41.390Z,98551.50
2022-10-01T14:32:50.976Z,98573.03
2022-10-01T14:33:50.697Z,98568.41
2022-10-01T14:35:05.224Z,98563.13
2022-10-01T14:36:16.868Z,98567.44
2022-10-01T14:37:17.283Z,98575.94
2022-10-01T14:38:21.226Z,98578.44
2022-10-01T14:39:29.470Z,98579.78
2022-10-01T14:40:26.716Z,98566.81
2022-10-01T14:41:24.309Z,98579.09
2022-10-01T14:42:24.377Z,98580.03
2022-10-01T14:44:49.464Z,98585.75
2022-10-01T14:46:06.021Z,98592.28
2022-10-01T14:47:25.314Z,98575.06
2022-10-01T14:48:23.085Z,98584.94
2022-10-01T14:49:32.035Z,98579.34
2022-10-01T14:55:34.653Z,98585.75
2022-10-01T14:57:09.741Z,98592.25
2022-10-01T14:58:06.914Z,98599.50
2022-10-01T14:59:04.238Z,98595.19
2022-10-01T15:00:02.158Z,98603.78
2022-10-01T15:00:59.057Z,98607.59
2022-10-01T15:02:01.450Z,98604.03
2022-10-01T15:03:15.318Z,98596.19
2022-10-01T15:04:16.978Z,98611.84
2022-10-01T15:05:22.752Z,98601.44
2022-10-01T15:06:24.227Z,98599.56
2022-10-01T15:07:21.086Z,98605.44
2022-10-01T15:08:19.519Z,98611.31
2022-10-01T15:09:18.746Z,98615.94
2022-10-01T15:10:20.463Z,98605.97
2022-10-01T15:11:25.325Z,98607.03
2022-10-01T15:12:22.606Z,98612.06
2022-10-01T15:13:26.636Z,98607.84
2022-10-01T15:14:24.975Z,98613.00
2022-10-01T15:15:28.120Z,98619.16
2022-10-01T15:16:26.098Z,98615.72
2022-10-01T15:17:25.157Z,98608.50
2022-10-01T15:18:22.032Z,98612.72
2022-10-01T15:19:20.017Z,98625.66
2022-10-01T15:20:17.122Z,98632.47
2022-10-01T15:21:25.006Z,98632.22
2022-10-01T15:22:23.683Z,98620.97
2022-10-01T15:23:21.909Z,98633.78
2022-10-01T15:24:22.632Z,98631.59
2022-10-01T15:25:23.937Z,98623.97
2022-10-01T15:26:27.773Z,98620.56
2022-10-01T15:27:24.889Z,98637.66
2022-10-01T15:28:33.294Z,98643.44
2022-10-01T15:29:30.288Z,98634.81
2022-10-01T15:30:27.479Z,98627.97
2022-10-01T15:31:24.414Z,98642.63
2022-10-01T15:32:25.279Z,98637.66
2022-10-01T15:33:27.804Z,98647.53
2022-10-01T15:34:25.718Z,98650.22
2022-10-01T15:35:22.930Z,98652.84
2022-10-01T15:36:19.799Z,98651.53
2022-10-01T15:37:31.412Z,98657.66
2022-10-01T15:38:31.029Z,98655.34
2022-10-01T15:39:31.496Z,98658.44
2022-10-01T15:40:30.000Z,98651.31
2022-10-01T15:41:32.302Z,98673.03
2022-10-01T15:42:31.275Z,98685.22
2022-10-01T15:43:35.705Z,98673.66
2022-10-01T15:44:46.361Z,98665.56
2022-10-01T15:45:43.301Z,98669.72
2022-10-01T15:46:40.485Z,98681.00
2022-10-01T15:47:52.440Z,98676.66
2022-10-01T15:48:58.101Z,98670.91
2022-10-01T15:50:01.570Z,98686.34
2022-10-01T15:51:24.133Z,98674.13
2022-10-01T15:52:39.267Z,98675.06
2022-10-01T15:53:36.104Z,98668.38
2022-10-01T15:54:34.705Z,98674.25
2022-10-01T15:55:34.548Z,98686.56
2022-10-01T15:56:31.915Z,98682.28
2022-10-01T15:57:33.660Z,98683.78
2022-10-01T15:58:32.312Z,98685.31
2022-10-01T15:59:29.210Z,98682.28
2022-10-01T16:00:28.033Z,98680.91
2022-10-01T16:01:26.471Z,98695.28
2022-10-01T16:02:26.179Z,98689.50
2022-10-01T16:03:27.392Z,98687.88
2022-10-01T16:04:24.404Z,98700.31
2022-10-01T16:05:23.458Z,98692.81